sensor_id;sensor_type;location;lat;lon;timestamp;P1;durP1;ratioP1;P2;durP2;ratioP2
30723;SDS011;17473;52.286;20.930;2023-02-15T00:00:03;37.17;;;23.73;;
30723;SDS011;17473;52.286;20.930;2023-02-15T00:02:32;44.97;;;24.40;;
30723;SDS011;17473;52.286;20.930;2023-02-15T00:04:59;42.73;;;24.60;;
30723;SDS011;17473;52.286;20.930;2023-02-15T00:07:26;38.63;;;23.87;;
30723;SDS011;17473;52.286;20.930;2023-02-15T00:09:53;41.23;;;23.73;;
30723;SDS011;17473;52.286;20.930;2023-02-15T00:12:20;45.63;;;25.37;;
30723;SDS011;17473;52.286;20.930;2023-02-15T00:14:47;41.13;;;24.33;;
30723;SDS011;17473;52.286;20.930;2023-02-15T00:17:15;37.53;;;24.87;;
30723;SDS011;17473;52.286;20.930;2023-02-15T00:19:42;44.50;;;26.40;;
30723;SDS011;17473;52.286;20.930;2023-02-15T00:22:09;42.97;;;25.73;;
30723;SDS011;17473;52.286;20.930;2023-02-15T00:24:36;40.87;;;24.67;;
30723;SDS011;17473;52.286;20.930;2023-02-15T00:27:03;38.03;;;25.77;;
30723;SDS011;17473;52.286;20.930;2023-02-15T00:29:30;41.93;;;26.23;;
30723;SDS011;17473;52.286;20.930;2023-02-15T00:31:57;44.17;;;26.33;;
30723;SDS011;17473;52.286;20.930;2023-02-15T00:34:25;45.10;;;25.13;;
30723;SDS011;17473;52.286;20.930;2023-02-15T00:36:55;44.20;;;26.73;;
30723;SDS011;17473;52.286;20.930;2023-02-15T00:39:22;45.40;;;26.53;;
30723;SDS011;17473;52.286;20.930;2023-02-15T00:41:50;47.93;;;25.63;;
30723;SDS011;17473;52.286;20.930;2023-02-15T00:44:17;44.40;;;26.13;;
30723;SDS011;17473;52.286;20.930;2023-02-15T00:46:44;45.07;;;27.27;;
30723;SDS011;17473;52.286;20.930;2023-02-15T00:49:11;40.37;;;25.70;;
30723;SDS011;17473;52.286;20.930;2023-02-15T00:51:38;41.33;;;25.40;;
30723;SDS011;17473;52.286;20.930;2023-02-15T00:54:05;43.47;;;24.07;;
30723;SDS011;17473;52.286;20.930;2023-02-15T00:56:33;38.73;;;24.37;;
30723;SDS011;17473;52.286;20.930;2023-02-15T00:59:00;44.07;;;25.33;;
30723;SDS011;17473;52.286;20.930;2023-02-15T01:01:27;42.73;;;25.93;;
30723;SDS011;17473;52.286;20.930;2023-02-15T01:03:55;45.67;;;25.10;;
30723;SDS011;17473;52.286;20.930;2023-02-15T01:06:22;49.00;;;25.83;;
30723;SDS011;17473;52.286;20.930;2023-02-15T01:08:49;46.33;;;25.47;;
30723;SDS011;17473;52.286;20.930;2023-02-15T01:11:17;40.47;;;24.30;;
30723;SDS011;17473;52.286;20.930;2023-02-15T01:13:51;41.57;;;25.03;;
30723;SDS011;17473;52.286;20.930;2023-02-15T01:16:22;42.37;;;25.27;;
30723;SDS011;17473;52.286;20.930;2023-02-15T01:18:51;44.17;;;25.23;;
30723;SDS011;17473;52.286;20.930;2023-02-15T01:21:21;41.10;;;24.50;;
30723;SDS011;17473;52.286;20.930;2023-02-15T01:23:51;38.00;;;23.93;;
30723;SDS011;17473;52.286;20.930;2023-02-15T01:26:18;41.43;;;25.17;;
30723;SDS011;17473;52.286;20.930;2023-02-15T01:28:45;38.80;;;23.87;;
30723;SDS011;17473;52.286;20.930;2023-02-15T01:31:17;43.00;;;25.07;;
30723;SDS011;17473;52.286;20.930;2023-02-15T01:33:47;46.07;;;25.70;;
30723;SDS011;17473;52.286;20.930;2023-02-15T01:36:15;40.57;;;24.87;;
30723;SDS011;17473;52.286;20.930;2023-02-15T01:38:43;43.50;;;25.03;;
30723;SDS011;17473;52.286;20.930;2023-02-15T01:41:11;42.90;;;26.27;;
30723;SDS011;17473;52.286;20.930;2023-02-15T01:44:00;42.70;;;25.77;;
30723;SDS011;17473;52.286;20.930;2023-02-15T01:46:40;46.03;;;26.23;;
30723;SDS011;17473;52.286;20.930;2023-02-15T01:49:17;41.20;;;26.13;;
30723;SDS011;17473;52.286;20.930;2023-02-15T01:51:50;41.83;;;25.30;;
30723;SDS011;17473;52.286;20.930;2023-02-15T01:54:21;41.93;;;26.10;;
30723;SDS011;17473;52.286;20.930;2023-02-15T01:56:56;45.60;;;25.33;;
30723;SDS011;17473;52.286;20.930;2023-02-15T01:59:29;44.00;;;24.87;;
30723;SDS011;17473;52.286;20.930;2023-02-15T02:02:00;41.30;;;25.10;;
30723;SDS011;17473;52.286;20.930;2023-02-15T02:04:31;42.10;;;24.97;;
30723;SDS011;17473;52.286;20.930;2023-02-15T02:07:12;42.37;;;25.17;;
30723;SDS011;17473;52.286;20.930;2023-02-15T02:09:42;43.37;;;25.57;;
30723;SDS011;17473;52.286;20.930;2023-02-15T02:12:10;46.80;;;26.57;;
30723;SDS011;17473;52.286;20.930;2023-02-15T02:14:38;46.17;;;25.63;;
30723;SDS011;17473;52.286;20.930;2023-02-15T02:17:09;43.57;;;26.57;;
30723;SDS011;17473;52.286;20.930;2023-02-15T02:32:24;47.07;;;27.03;;
30723;SDS011;17473;52.286;20.930;2023-02-15T02:35:18;49.00;;;28.20;;
30723;SDS011;17473;52.286;20.930;2023-02-15T02:38:15;48.90;;;27.93;;
30723;SDS011;17473;52.286;20.930;2023-02-15T02:46:50;53.40;;;29.23;;
30723;SDS011;17473;52.286;20.930;2023-02-15T02:49:31;51.93;;;26.73;;
30723;SDS011;17473;52.286;20.930;2023-02-15T02:52:02;53.10;;;26.97;;
30723;SDS011;17473;52.286;20.930;2023-02-15T02:54:34;44.37;;;27.50;;
30723;SDS011;17473;52.286;20.930;2023-02-15T02:57:04;52.43;;;28.00;;
30723;SDS011;17473;52.286;20.930;2023-02-15T02:59:39;49.87;;;27.33;;
30723;SDS011;17473;52.286;20.930;2023-02-15T03:02:13;52.70;;;28.03;;
30723;SDS011;17473;52.286;20.930;2023-02-15T03:04:48;48.60;;;28.10;;
30723;SDS011;17473;52.286;20.930;2023-02-15T03:07:25;46.83;;;28.43;;
30723;SDS011;17473;52.286;20.930;2023-02-15T03:09:55;48.00;;;27.90;;
30723;SDS011;17473;52.286;20.930;2023-02-15T03:15:06;44.77;;;26.40;;
30723;SDS011;17473;52.286;20.930;2023-02-15T03:17:46;47.07;;;27.27;;
30723;SDS011;17473;52.286;20.930;2023-02-15T03:20:20;49.30;;;28.13;;
30723;SDS011;17473;52.286;20.930;2023-02-15T03:22:59;50.40;;;27.50;;
30723;SDS011;17473;52.286;20.930;2023-02-15T03:25:38;47.67;;;28.23;;
30723;SDS011;17473;52.286;20.930;2023-02-15T03:28:10;46.57;;;27.40;;
30723;SDS011;17473;52.286;20.930;2023-02-15T03:30:52;47.40;;;28.37;;
30723;SDS011;17473;52.286;20.930;2023-02-15T03:33:24;44.90;;;26.90;;
30723;SDS011;17473;52.286;20.930;2023-02-15T03:36:00;53.40;;;29.93;;
30723;SDS011;17473;52.286;20.930;2023-02-15T03:38:49;53.63;;;28.57;;
30723;SDS011;17473;52.286;20.930;2023-02-15T03:41:58;45.57;;;26.53;;
30723;SDS011;17473;52.286;20.930;2023-02-15T03:44:57;51.37;;;29.17;;
30723;SDS011;17473;52.286;20.930;2023-02-15T03:47:31;48.90;;;28.17;;
30723;SDS011;17473;52.286;20.930;2023-02-15T03:53:00;47.17;;;27.80;;
30723;SDS011;17473;52.286;20.930;2023-02-15T03:55:31;46.73;;;29.20;;
30723;SDS011;17473;52.286;20.930;2023-02-15T03:58:01;47.73;;;27.33;;
30723;SDS011;17473;52.286;20.930;2023-02-15T04:00:55;49.97;;;28.90;;
30723;SDS011;17473;52.286;20.930;2023-02-15T04:03:45;51.73;;;28.47;;
30723;SDS011;17473;52.286;20.930;2023-02-15T04:06:23;46.60;;;26.93;;
30723;SDS011;17473;52.286;20.930;2023-02-15T04:08:50;47.53;;;28.70;;
30723;SDS011;17473;52.286;20.930;2023-02-15T04:11:46;57.80;;;28.17;;
30723;SDS011;17473;52.286;20.930;2023-02-15T04:14:13;43.90;;;27.17;;
30723;SDS011;17473;52.286;20.930;2023-02-15T04:16:59;47.40;;;26.70;;
30723;SDS011;17473;52.286;20.930;2023-02-15T04:19:26;46.20;;;26.00;;
30723;SDS011;17473;52.286;20.930;2023-02-15T04:22:12;46.57;;;27.23;;
30723;SDS011;17473;52.286;20.930;2023-02-15T04:24:57;49.23;;;26.13;;
30723;SDS011;17473;52.286;20.930;2023-02-15T04:27:43;53.43;;;26.93;;
30723;SDS011;17473;52.286;20.930;2023-02-15T04:30:16;46.90;;;26.67;;
30723;SDS011;17473;52.286;20.930;2023-02-15T04:32:47;42.23;;;25.13;;
30723;SDS011;17473;52.286;20.930;2023-02-15T04:35:14;42.03;;;24.53;;
30723;SDS011;17473;52.286;20.930;2023-02-15T04:37:42;47.17;;;25.37;;
30723;SDS011;17473;52.286;20.930;2023-02-15T04:40:11;45.03;;;25.70;;
30723;SDS011;17473;52.286;20.930;2023-02-15T04:42:42;48.13;;;26.33;;
30723;SDS011;17473;52.286;20.930;2023-02-15T04:45:09;43.40;;;25.27;;
30723;SDS011;17473;52.286;20.930;2023-02-15T04:47:36;43.17;;;25.63;;
30723;SDS011;17473;52.286;20.930;2023-02-15T04:50:03;46.73;;;24.70;;
30723;SDS011;17473;52.286;20.930;2023-02-15T04:52:31;44.83;;;25.60;;
30723;SDS011;17473;52.286;20.930;2023-02-15T04:54:58;47.23;;;27.70;;
30723;SDS011;17473;52.286;20.930;2023-02-15T04:57:25;51.67;;;26.33;;
30723;SDS011;17473;52.286;20.930;2023-02-15T04:59:52;44.70;;;26.33;;
30723;SDS011;17473;52.286;20.930;2023-02-15T05:02:19;47.77;;;25.53;;
30723;SDS011;17473;52.286;20.930;2023-02-15T05:04:46;48.50;;;25.70;;
30723;SDS011;17473;52.286;20.930;2023-02-15T05:07:13;44.87;;;25.17;;
30723;SDS011;17473;52.286;20.930;2023-02-15T05:09:40;40.63;;;22.67;;
30723;SDS011;17473;52.286;20.930;2023-02-15T05:12:08;43.20;;;23.80;;
30723;SDS011;17473;52.286;20.930;2023-02-15T05:14:35;38.07;;;23.17;;
30723;SDS011;17473;52.286;20.930;2023-02-15T05:17:02;44.40;;;24.50;;
30723;SDS011;17473;52.286;20.930;2023-02-15T05:19:31;42.17;;;24.20;;
30723;SDS011;17473;52.286;20.930;2023-02-15T05:21:58;42.60;;;22.83;;
30723;SDS011;17473;52.286;20.930;2023-02-15T05:24:25;38.23;;;22.83;;
30723;SDS011;17473;52.286;20.930;2023-02-15T05:27:11;43.87;;;23.97;;
30723;SDS011;17473;52.286;20.930;2023-02-15T05:29:57;33.77;;;21.80;;
30723;SDS011;17473;52.286;20.930;2023-02-15T05:32:25;39.30;;;22.20;;
30723;SDS011;17473;52.286;20.930;2023-02-15T05:34:52;36.47;;;21.93;;
30723;SDS011;17473;52.286;20.930;2023-02-15T05:37:19;35.33;;;21.63;;
30723;SDS011;17473;52.286;20.930;2023-02-15T05:39:46;37.73;;;22.30;;
30723;SDS011;17473;52.286;20.930;2023-02-15T05:42:13;35.23;;;20.73;;
30723;SDS011;17473;52.286;20.930;2023-02-15T05:44:40;38.57;;;20.80;;
30723;SDS011;17473;52.286;20.930;2023-02-15T05:47:08;34.57;;;21.00;;
30723;SDS011;17473;52.286;20.930;2023-02-15T05:49:35;33.47;;;20.07;;
30723;SDS011;17473;52.286;20.930;2023-02-15T05:52:02;37.03;;;21.17;;
30723;SDS011;17473;52.286;20.930;2023-02-15T05:54:30;33.53;;;19.50;;
30723;SDS011;17473;52.286;20.930;2023-02-15T05:56:57;33.77;;;20.57;;
30723;SDS011;17473;52.286;20.930;2023-02-15T05:59:24;35.33;;;19.63;;
30723;SDS011;17473;52.286;20.930;2023-02-15T06:01:51;36.23;;;20.70;;
30723;SDS011;17473;52.286;20.930;2023-02-15T06:04:18;31.87;;;19.33;;
30723;SDS011;17473;52.286;20.930;2023-02-15T06:06:46;32.07;;;18.97;;
30723;SDS011;17473;52.286;20.930;2023-02-15T06:09:13;33.70;;;19.80;;
30723;SDS011;17473;52.286;20.930;2023-02-15T06:11:40;33.37;;;18.57;;
30723;SDS011;17473;52.286;20.930;2023-02-15T06:14:07;33.27;;;17.97;;
30723;SDS011;17473;52.286;20.930;2023-02-15T06:16:34;33.57;;;18.97;;
30723;SDS011;17473;52.286;20.930;2023-02-15T06:19:02;29.03;;;18.57;;
30723;SDS011;17473;52.286;20.930;2023-02-15T06:21:30;29.60;;;19.20;;
30723;SDS011;17473;52.286;20.930;2023-02-15T06:23:57;33.50;;;18.57;;
30723;SDS011;17473;52.286;20.930;2023-02-15T06:26:24;31.60;;;18.23;;
30723;SDS011;17473;52.286;20.930;2023-02-15T06:28:51;36.97;;;18.63;;
30723;SDS011;17473;52.286;20.930;2023-02-15T06:31:19;33.07;;;19.17;;
30723;SDS011;17473;52.286;20.930;2023-02-15T06:33:46;30.77;;;17.37;;
30723;SDS011;17473;52.286;20.930;2023-02-15T06:36:13;30.17;;;19.17;;
30723;SDS011;17473;52.286;20.930;2023-02-15T06:38:40;33.60;;;19.57;;
30723;SDS011;17473;52.286;20.930;2023-02-15T06:41:07;31.03;;;17.30;;
30723;SDS011;17473;52.286;20.930;2023-02-15T06:43:34;31.80;;;19.03;;
30723;SDS011;17473;52.286;20.930;2023-02-15T06:46:01;35.77;;;19.23;;
30723;SDS011;17473;52.286;20.930;2023-02-15T06:48:29;33.33;;;18.63;;
30723;SDS011;17473;52.286;20.930;2023-02-15T06:50:56;30.53;;;18.27;;
30723;SDS011;17473;52.286;20.930;2023-02-15T06:53:23;29.73;;;18.50;;
30723;SDS011;17473;52.286;20.930;2023-02-15T06:55:50;32.07;;;18.30;;
30723;SDS011;17473;52.286;20.930;2023-02-15T06:58:17;31.67;;;18.13;;
30723;SDS011;17473;52.286;20.930;2023-02-15T07:00:45;31.83;;;17.53;;
30723;SDS011;17473;52.286;20.930;2023-02-15T07:03:13;29.73;;;17.97;;
30723;SDS011;17473;52.286;20.930;2023-02-15T07:05:41;30.97;;;18.23;;
30723;SDS011;17473;52.286;20.930;2023-02-15T07:08:08;32.70;;;18.33;;
30723;SDS011;17473;52.286;20.930;2023-02-15T07:10:35;37.67;;;19.50;;
30723;SDS011;17473;52.286;20.930;2023-02-15T07:13:02;33.40;;;18.10;;
30723;SDS011;17473;52.286;20.930;2023-02-15T07:15:29;32.23;;;16.83;;
30723;SDS011;17473;52.286;20.930;2023-02-15T07:17:57;31.37;;;17.20;;
30723;SDS011;17473;52.286;20.930;2023-02-15T07:20:25;28.90;;;16.73;;
30723;SDS011;17473;52.286;20.930;2023-02-15T07:22:52;27.33;;;16.47;;
30723;SDS011;17473;52.286;20.930;2023-02-15T07:25:19;30.20;;;17.83;;
30723;SDS011;17473;52.286;20.930;2023-02-15T07:27:46;33.23;;;17.27;;
30723;SDS011;17473;52.286;20.930;2023-02-15T07:30:14;30.93;;;18.03;;
30723;SDS011;17473;52.286;20.930;2023-02-15T07:32:43;33.47;;;17.40;;
30723;SDS011;17473;52.286;20.930;2023-02-15T07:35:31;31.47;;;17.83;;
30723;SDS011;17473;52.286;20.930;2023-02-15T07:37:59;32.90;;;17.77;;
30723;SDS011;17473;52.286;20.930;2023-02-15T07:40:27;34.60;;;17.00;;
30723;SDS011;17473;52.286;20.930;2023-02-15T07:42:57;32.00;;;17.40;;
30723;SDS011;17473;52.286;20.930;2023-02-15T07:45:25;29.53;;;16.40;;
30723;SDS011;17473;52.286;20.930;2023-02-15T07:47:53;32.67;;;16.33;;
30723;SDS011;17473;52.286;20.930;2023-02-15T07:50:20;30.30;;;17.70;;
30723;SDS011;17473;52.286;20.930;2023-02-15T07:52:47;35.03;;;19.07;;
30723;SDS011;17473;52.286;20.930;2023-02-15T07:55:14;31.87;;;17.60;;
30723;SDS011;17473;52.286;20.930;2023-02-15T07:57:45;31.90;;;18.43;;
30723;SDS011;17473;52.286;20.930;2023-02-15T08:00:15;29.07;;;17.73;;
30723;SDS011;17473;52.286;20.930;2023-02-15T08:02:48;33.47;;;18.63;;
30723;SDS011;17473;52.286;20.930;2023-02-15T08:05:36;34.10;;;18.73;;
30723;SDS011;17473;52.286;20.930;2023-02-15T08:08:04;32.43;;;18.33;;
30723;SDS011;17473;52.286;20.930;2023-02-15T08:10:31;28.97;;;16.50;;
30723;SDS011;17473;52.286;20.930;2023-02-15T08:13:17;29.97;;;16.40;;
30723;SDS011;17473;52.286;20.930;2023-02-15T08:15:50;33.53;;;17.47;;
30723;SDS011;17473;52.286;20.930;2023-02-15T08:18:17;30.47;;;16.87;;
30723;SDS011;17473;52.286;20.930;2023-02-15T08:20:50;27.37;;;15.23;;
30723;SDS011;17473;52.286;20.930;2023-02-15T08:23:17;26.67;;;16.30;;
30723;SDS011;17473;52.286;20.930;2023-02-15T08:25:45;28.63;;;16.00;;
30723;SDS011;17473;52.286;20.930;2023-02-15T08:28:12;34.70;;;17.13;;
30723;SDS011;17473;52.286;20.930;2023-02-15T08:30:39;32.30;;;17.40;;
30723;SDS011;17473;52.286;20.930;2023-02-15T08:33:06;39.20;;;17.60;;
30723;SDS011;17473;52.286;20.930;2023-02-15T08:35:33;34.10;;;18.17;;
30723;SDS011;17473;52.286;20.930;2023-02-15T08:38:00;34.33;;;19.13;;
30723;SDS011;17473;52.286;20.930;2023-02-15T08:40:27;34.67;;;19.87;;
30723;SDS011;17473;52.286;20.930;2023-02-15T08:42:54;34.53;;;18.73;;
30723;SDS011;17473;52.286;20.930;2023-02-15T08:45:21;36.83;;;19.57;;
30723;SDS011;17473;52.286;20.930;2023-02-15T08:47:51;34.80;;;18.60;;
30723;SDS011;17473;52.286;20.930;2023-02-15T08:50:19;35.30;;;19.07;;
30723;SDS011;17473;52.286;20.930;2023-02-15T08:52:46;31.80;;;18.23;;
30723;SDS011;17473;52.286;20.930;2023-02-15T08:55:13;31.23;;;17.57;;
30723;SDS011;17473;52.286;20.930;2023-02-15T08:57:41;34.73;;;18.30;;
30723;SDS011;17473;52.286;20.930;2023-02-15T09:00:11;31.17;;;17.37;;
30723;SDS011;17473;52.286;20.930;2023-02-15T09:02:41;33.97;;;18.57;;
30723;SDS011;17473;52.286;20.930;2023-02-15T09:05:08;40.10;;;17.50;;
30723;SDS011;17473;52.286;20.930;2023-02-15T09:07:35;32.77;;;18.07;;
30723;SDS011;17473;52.286;20.930;2023-02-15T09:10:02;33.40;;;17.87;;
30723;SDS011;17473;52.286;20.930;2023-02-15T09:12:30;33.67;;;18.77;;
30723;SDS011;17473;52.286;20.930;2023-02-15T09:14:57;30.27;;;17.57;;
30723;SDS011;17473;52.286;20.930;2023-02-15T09:17:24;34.70;;;19.30;;
30723;SDS011;17473;52.286;20.930;2023-02-15T09:19:51;35.40;;;19.13;;
30723;SDS011;17473;52.286;20.930;2023-02-15T09:22:19;35.57;;;18.93;;
30723;SDS011;17473;52.286;20.930;2023-02-15T09:24:46;39.23;;;19.13;;
30723;SDS011;17473;52.286;20.930;2023-02-15T09:27:13;32.23;;;18.50;;
30723;SDS011;17473;52.286;20.930;2023-02-15T09:29:40;39.20;;;20.77;;
30723;SDS011;17473;52.286;20.930;2023-02-15T09:32:07;35.17;;;19.37;;
30723;SDS011;17473;52.286;20.930;2023-02-15T09:34:34;33.33;;;19.50;;
30723;SDS011;17473;52.286;20.930;2023-02-15T09:37:01;35.80;;;20.17;;
30723;SDS011;17473;52.286;20.930;2023-02-15T09:39:29;36.00;;;19.00;;
30723;SDS011;17473;52.286;20.930;2023-02-15T09:42:16;30.37;;;17.43;;
30723;SDS011;17473;52.286;20.930;2023-02-15T09:48:26;32.70;;;18.40;;
30723;SDS011;17473;52.286;20.930;2023-02-15T09:56:58;28.50;;;16.77;;
30723;SDS011;17473;52.286;20.930;2023-02-15T10:05:22;29.00;;;15.60;;
30723;SDS011;17473;52.286;20.930;2023-02-15T10:17:21;30.00;;;15.70;;
30723;SDS011;17473;52.286;20.930;2023-02-15T10:25:55;34.40;;;16.33;;
30723;SDS011;17473;52.286;20.930;2023-02-15T10:28:48;35.33;;;17.20;;
30723;SDS011;17473;52.286;20.930;2023-02-15T10:34:26;32.03;;;17.53;;
30723;SDS011;17473;52.286;20.930;2023-02-15T10:40:00;33.53;;;16.97;;
30723;SDS011;17473;52.286;20.930;2023-02-15T10:50:56;30.83;;;16.93;;
30723;SDS011;17473;52.286;20.930;2023-02-15T10:56:21;33.87;;;17.63;;
30723;SDS011;17473;52.286;20.930;2023-02-15T11:13:29;27.60;;;15.63;;
30723;SDS011;17473;52.286;20.930;2023-02-15T11:16:11;28.83;;;16.00;;
30723;SDS011;17473;52.286;20.930;2023-02-15T11:19:10;30.20;;;15.33;;
30723;SDS011;17473;52.286;20.930;2023-02-15T11:21:46;25.57;;;15.47;;
30723;SDS011;17473;52.286;20.930;2023-02-15T11:24:19;32.00;;;15.63;;
30723;SDS011;17473;52.286;20.930;2023-02-15T11:29:34;23.00;;;13.53;;
30723;SDS011;17473;52.286;20.930;2023-02-15T11:32:27;27.43;;;13.80;;
30723;SDS011;17473;52.286;20.930;2023-02-15T11:37:43;32.03;;;17.87;;
30723;SDS011;17473;52.286;20.930;2023-02-15T11:40:23;29.27;;;16.80;;
30723;SDS011;17473;52.286;20.930;2023-02-15T11:42:58;27.03;;;15.67;;
30723;SDS011;17473;52.286;20.930;2023-02-15T11:45:39;27.70;;;14.63;;
30723;SDS011;17473;52.286;20.930;2023-02-15T11:48:14;32.07;;;16.07;;
30723;SDS011;17473;52.286;20.930;2023-02-15T11:50:42;30.57;;;16.53;;
30723;SDS011;17473;52.286;20.930;2023-02-15T11:53:16;32.67;;;17.00;;
30723;SDS011;17473;52.286;20.930;2023-02-15T11:55:48;36.70;;;16.57;;
30723;SDS011;17473;52.286;20.930;2023-02-15T12:01:24;27.60;;;15.87;;
30723;SDS011;17473;52.286;20.930;2023-02-15T12:04:07;31.40;;;16.40;;
30723;SDS011;17473;52.286;20.930;2023-02-15T12:07:00;27.63;;;15.40;;
30723;SDS011;17473;52.286;20.930;2023-02-15T12:09:54;30.63;;;17.47;;
30723;SDS011;17473;52.286;20.930;2023-02-15T12:12:31;30.37;;;16.70;;
30723;SDS011;17473;52.286;20.930;2023-02-15T12:15:03;32.97;;;17.57;;
30723;SDS011;17473;52.286;20.930;2023-02-15T12:17:40;30.27;;;16.57;;
30723;SDS011;17473;52.286;20.930;2023-02-15T12:20:24;30.77;;;16.80;;
30723;SDS011;17473;52.286;20.930;2023-02-15T12:25:55;34.07;;;18.17;;
30723;SDS011;17473;52.286;20.930;2023-02-15T12:28:25;26.80;;;16.63;;
30723;SDS011;17473;52.286;20.930;2023-02-15T12:34:14;31.33;;;17.87;;
30723;SDS011;17473;52.286;20.930;2023-02-15T12:36:51;36.90;;;18.73;;
30723;SDS011;17473;52.286;20.930;2023-02-15T12:39:28;34.50;;;19.93;;
30723;SDS011;17473;52.286;20.930;2023-02-15T12:41:59;34.00;;;18.53;;
30723;SDS011;17473;52.286;20.930;2023-02-15T12:44:58;33.17;;;18.17;;
30723;SDS011;17473;52.286;20.930;2023-02-15T12:47:45;35.73;;;19.50;;
30723;SDS011;17473;52.286;20.930;2023-02-15T12:50:13;36.40;;;20.80;;
30723;SDS011;17473;52.286;20.930;2023-02-15T12:53:34;35.33;;;19.87;;
30723;SDS011;17473;52.286;20.930;2023-02-15T12:56:01;38.77;;;20.10;;
30723;SDS011;17473;52.286;20.930;2023-02-15T12:58:33;41.60;;;20.67;;
30723;SDS011;17473;52.286;20.930;2023-02-15T13:01:21;41.00;;;20.40;;
30723;SDS011;17473;52.286;20.930;2023-02-15T13:06:22;40.43;;;21.40;;
30723;SDS011;17473;52.286;20.930;2023-02-15T13:08:50;39.93;;;21.40;;
30723;SDS011;17473;52.286;20.930;2023-02-15T13:11:27;42.27;;;22.17;;
30723;SDS011;17473;52.286;20.930;2023-02-15T13:14:15;37.87;;;19.97;;
30723;SDS011;17473;52.286;20.930;2023-02-15T13:16:58;38.73;;;20.27;;
30723;SDS011;17473;52.286;20.930;2023-02-15T13:19:31;38.67;;;21.00;;
30723;SDS011;17473;52.286;20.930;2023-02-15T13:22:25;38.40;;;21.40;;
30723;SDS011;17473;52.286;20.930;2023-02-15T13:27:51;41.43;;;21.10;;
30723;SDS011;17473;52.286;20.930;2023-02-15T13:30:36;42.53;;;22.03;;
30723;SDS011;17473;52.286;20.930;2023-02-15T13:33:19;45.67;;;22.93;;
30723;SDS011;17473;52.286;20.930;2023-02-15T13:45:27;38.77;;;21.40;;
30723;SDS011;17473;52.286;20.930;2023-02-15T14:00:13;43.33;;;23.73;;
30723;SDS011;17473;52.286;20.930;2023-02-15T14:19:52;41.87;;;23.60;;
30723;SDS011;17473;52.286;20.930;2023-02-15T14:22:30;43.27;;;24.40;;
30723;SDS011;17473;52.286;20.930;2023-02-15T14:28:16;42.17;;;24.27;;
30723;SDS011;17473;52.286;20.930;2023-02-15T14:31:17;43.43;;;23.70;;
30723;SDS011;17473;52.286;20.930;2023-02-15T14:33:52;47.43;;;24.07;;
30723;SDS011;17473;52.286;20.930;2023-02-15T14:36:24;48.90;;;24.10;;
30723;SDS011;17473;52.286;20.930;2023-02-15T14:42:29;48.83;;;23.93;;
30723;SDS011;17473;52.286;20.930;2023-02-15T14:45:16;44.00;;;23.63;;
30723;SDS011;17473;52.286;20.930;2023-02-15T14:48:12;45.97;;;23.43;;
30723;SDS011;17473;52.286;20.930;2023-02-15T14:50:50;48.60;;;26.17;;
30723;SDS011;17473;52.286;20.930;2023-02-15T14:56:13;50.57;;;25.73;;
30723;SDS011;17473;52.286;20.930;2023-02-15T15:01:28;52.53;;;27.67;;
30723;SDS011;17473;52.286;20.930;2023-02-15T15:04:05;53.77;;;27.97;;
30723;SDS011;17473;52.286;20.930;2023-02-15T15:06:41;51.07;;;26.47;;
30723;SDS011;17473;52.286;20.930;2023-02-15T15:09:24;51.83;;;27.27;;
30723;SDS011;17473;52.286;20.930;2023-02-15T15:11:55;57.53;;;29.63;;
30723;SDS011;17473;52.286;20.930;2023-02-15T15:15:04;52.53;;;26.70;;
30723;SDS011;17473;52.286;20.930;2023-02-15T15:20:01;55.60;;;28.20;;
30723;SDS011;17473;52.286;20.930;2023-02-15T15:22:34;54.60;;;27.00;;
30723;SDS011;17473;52.286;20.930;2023-02-15T15:25:39;55.27;;;27.63;;
30723;SDS011;17473;52.286;20.930;2023-02-15T15:27:59;51.43;;;26.30;;
30723;SDS011;17473;52.286;20.930;2023-02-15T15:35:34;62.33;;;27.30;;
30723;SDS011;17473;52.286;20.930;2023-02-15T15:38:22;47.67;;;25.20;;
30723;SDS011;17473;52.286;20.930;2023-02-15T15:41:39;52.07;;;27.13;;
30723;SDS011;17473;52.286;20.930;2023-02-15T15:47:44;61.13;;;30.07;;
30723;SDS011;17473;52.286;20.930;2023-02-15T15:50:32;59.20;;;28.63;;
30723;SDS011;17473;52.286;20.930;2023-02-15T15:53:01;53.60;;;28.33;;
30723;SDS011;17473;52.286;20.930;2023-02-15T15:55:30;53.83;;;28.03;;
30723;SDS011;17473;52.286;20.930;2023-02-15T15:58:01;48.23;;;24.20;;
30723;SDS011;17473;52.286;20.930;2023-02-15T16:03:04;44.07;;;22.37;;
30723;SDS011;17473;52.286;20.930;2023-02-15T16:05:36;37.47;;;21.13;;
30723;SDS011;17473;52.286;20.930;2023-02-15T16:08:04;40.23;;;20.27;;
30723;SDS011;17473;52.286;20.930;2023-02-15T16:10:32;40.33;;;21.37;;
30723;SDS011;17473;52.286;20.930;2023-02-15T16:13:02;44.37;;;22.43;;
30723;SDS011;17473;52.286;20.930;2023-02-15T16:15:33;39.40;;;21.97;;
30723;SDS011;17473;52.286;20.930;2023-02-15T16:18:16;42.57;;;21.17;;
30723;SDS011;17473;52.286;20.930;2023-02-15T16:20:53;37.17;;;20.67;;
30723;SDS011;17473;52.286;20.930;2023-02-15T16:29:26;46.13;;;22.37;;
30723;SDS011;17473;52.286;20.930;2023-02-15T16:31:58;46.60;;;23.47;;
30723;SDS011;17473;52.286;20.930;2023-02-15T16:34:53;46.03;;;23.43;;
30723;SDS011;17473;52.286;20.930;2023-02-15T16:37:32;45.23;;;23.33;;
30723;SDS011;17473;52.286;20.930;2023-02-15T16:40:00;50.03;;;23.50;;
30723;SDS011;17473;52.286;20.930;2023-02-15T16:42:28;44.50;;;22.80;;
30723;SDS011;17473;52.286;20.930;2023-02-15T16:44:58;47.97;;;23.97;;
30723;SDS011;17473;52.286;20.930;2023-02-15T16:47:36;48.37;;;24.67;;
30723;SDS011;17473;52.286;20.930;2023-02-15T16:50:27;50.40;;;24.63;;
30723;SDS011;17473;52.286;20.930;2023-02-15T16:53:05;50.70;;;25.83;;
30723;SDS011;17473;52.286;20.930;2023-02-15T16:55:42;47.60;;;23.87;;
30723;SDS011;17473;52.286;20.930;2023-02-15T16:58:14;43.73;;;23.37;;
30723;SDS011;17473;52.286;20.930;2023-02-15T17:00:43;49.43;;;24.53;;
30723;SDS011;17473;52.286;20.930;2023-02-15T17:05:45;41.97;;;22.47;;
30723;SDS011;17473;52.286;20.930;2023-02-15T17:11:11;45.30;;;22.10;;
30723;SDS011;17473;52.286;20.930;2023-02-15T17:16:52;46.33;;;21.30;;
30723;SDS011;17473;52.286;20.930;2023-02-15T17:19:27;44.93;;;22.20;;
30723;SDS011;17473;52.286;20.930;2023-02-15T17:22:02;42.33;;;21.47;;
30723;SDS011;17473;52.286;20.930;2023-02-15T17:24:37;34.03;;;19.03;;
30723;SDS011;17473;52.286;20.930;2023-02-15T17:29:52;40.90;;;19.70;;
30723;SDS011;17473;52.286;20.930;2023-02-15T17:32:26;34.57;;;19.23;;
30723;SDS011;17473;52.286;20.930;2023-02-15T17:40:16;39.33;;;20.67;;
30723;SDS011;17473;52.286;20.930;2023-02-15T17:42:53;44.93;;;21.47;;
30723;SDS011;17473;52.286;20.930;2023-02-15T17:45:21;42.03;;;22.23;;
30723;SDS011;17473;52.286;20.930;2023-02-15T17:47:52;40.50;;;21.73;;
30723;SDS011;17473;52.286;20.930;2023-02-15T17:50:21;43.60;;;23.40;;
30723;SDS011;17473;52.286;20.930;2023-02-15T17:52:52;42.03;;;22.83;;
30723;SDS011;17473;52.286;20.930;2023-02-15T17:55:22;44.20;;;22.90;;